GBODE EGBO-EGCV
Flight info
| Callsign | GBODE |
|---|---|
| Flight time | 0h 25m |
| Altitude | 2100 |
| Route | EGBO DCT BRIDGNORTH DCT MONTFORD BRIDGE DCT EGCV |
| Aircraft | P28A/L-VGDW/C |
Departure
| Time | 2026-05-04 15:24 |
|---|---|
| Airport | Wolverhampton Halfpenny Green Airport (EGBO) |
Arrival
| Time | 2026-05-04 15:49 |
|---|---|
| Airport | Sleap Airfield (EGCV) |
| Time | Latitude | Longitude | Altitude | Speed | Heading |
|---|---|---|---|---|---|
| 2026-05-04 14:47 | 52.51536 | -2.26256 | 273 ft | 0 kts | 270° |
| 2026-05-04 15:16 | 52.51526 | -2.26276 | 270 ft | 4 kts | 198° |
| 2026-05-04 15:17 | 52.51521 | -2.26328 | 269 ft | 7 kts | 277° |
| 2026-05-04 15:17 | 52.51537 | -2.26574 | 266 ft | 14 kts | 275° |
| 2026-05-04 15:17 | 52.51548 | -2.26710 | 262 ft | 10 kts | 295° |
| 2026-05-04 15:18 | 52.51617 | -2.26680 | 269 ft | 13 kts | 37° |
| 2026-05-04 15:18 | 52.51699 | -2.26580 | 276 ft | 10 kts | 41° |
| 2026-05-04 15:18 | 52.51700 | -2.26446 | 275 ft | 15 kts | 95° |
| 2026-05-04 15:19 | 52.51683 | -2.26225 | 275 ft | 0 kts | 53° |
| 2026-05-04 15:21 | 52.51684 | -2.26215 | 275 ft | 5 kts | 96° |
| 2026-05-04 15:21 | 52.51676 | -2.26115 | 276 ft | 13 kts | 97° |
| 2026-05-04 15:21 | 52.51644 | -2.25671 | 277 ft | 18 kts | 96° |
| 2026-05-04 15:22 | 52.51629 | -2.25468 | 276 ft | 13 kts | 99° |
| 2026-05-04 15:22 | 52.51565 | -2.25374 | 277 ft | 15 kts | 162° |
| 2026-05-04 15:22 | 52.51324 | -2.25392 | 279 ft | 20 kts | 222° |
| 2026-05-04 15:23 | 52.51287 | -2.25492 | 281 ft | 5 kts | 248° |
| 2026-05-04 15:23 | 52.51267 | -2.25588 | 284 ft | 12 kts | 275° |
| 2026-05-04 15:23 | 52.51447 | -2.25738 | 277 ft | 59 kts | 336° |
| 2026-05-04 15:23 | 52.51882 | -2.26063 | 494 ft | 69 kts | 346° |
| 2026-05-04 15:24 | 52.52855 | -2.26431 | 1092 ft | 76 kts | 343° |
| 2026-05-04 15:24 | 52.53835 | -2.27213 | 1605 ft | 83 kts | 307° |
| 2026-05-04 15:25 | 52.53879 | -2.28178 | 1833 ft | 91 kts | 275° |
| 2026-05-04 15:25 | 52.53879 | -2.29168 | 2186 ft | 84 kts | 276° |
| 2026-05-04 15:25 | 52.53916 | -2.30150 | 2439 ft | 88 kts | 279° |
| 2026-05-04 15:26 | 52.53866 | -2.32119 | 2997 ft | 85 kts | 268° |
| 2026-05-04 15:26 | 52.53811 | -2.33097 | 3232 ft | 87 kts | 268° |
| 2026-05-04 15:26 | 52.53762 | -2.35096 | 3384 ft | 88 kts | 274° |
| 2026-05-04 15:27 | 52.53726 | -2.36133 | 3376 ft | 90 kts | 269° |
| 2026-05-04 15:27 | 52.53635 | -2.38191 | 3393 ft | 91 kts | 271° |
| 2026-05-04 15:28 | 52.53872 | -2.40179 | 3369 ft | 93 kts | 314° |
| 2026-05-04 15:28 | 52.54303 | -2.40945 | 3386 ft | 90 kts | 318° |
| 2026-05-04 15:28 | 52.55191 | -2.42425 | 3377 ft | 91 kts | 316° |
| 2026-05-04 15:29 | 52.55632 | -2.43171 | 3379 ft | 90 kts | 316° |
| 2026-05-04 15:30 | 52.57386 | -2.46130 | 3410 ft | 91 kts | 317° |
| 2026-05-04 15:30 | 52.58677 | -2.48389 | 3433 ft | 90 kts | 315° |
| 2026-05-04 15:31 | 52.59549 | -2.49882 | 3410 ft | 90 kts | 320° |
| 2026-05-04 15:31 | 52.60013 | -2.50586 | 3387 ft | 91 kts | 319° |
| 2026-05-04 15:32 | 52.61275 | -2.52895 | 3420 ft | 90 kts | 315° |
| 2026-05-04 15:32 | 52.62136 | -2.54374 | 3440 ft | 90 kts | 316° |
| 2026-05-04 15:33 | 52.62996 | -2.55870 | 3436 ft | 91 kts | 317° |
| 2026-05-04 15:34 | 52.64237 | -2.58240 | 3425 ft | 91 kts | 309° |
| 2026-05-04 15:34 | 52.64608 | -2.59084 | 3417 ft | 91 kts | 308° |
| 2026-05-04 15:34 | 52.65383 | -2.60728 | 3398 ft | 91 kts | 311° |
| 2026-05-04 15:35 | 52.66213 | -2.62318 | 3395 ft | 92 kts | 313° |
| 2026-05-04 15:35 | 52.66626 | -2.63123 | 3393 ft | 91 kts | 312° |
| 2026-05-04 15:35 | 52.67028 | -2.63938 | 3379 ft | 92 kts | 311° |
| 2026-05-04 15:36 | 52.67835 | -2.65548 | 3353 ft | 91 kts | 312° |
| 2026-05-04 15:36 | 52.68232 | -2.66363 | 3320 ft | 91 kts | 312° |
| 2026-05-04 15:36 | 52.68632 | -2.67177 | 3313 ft | 91 kts | 312° |
| 2026-05-04 15:37 | 52.69031 | -2.67994 | 3300 ft | 91 kts | 311° |
| 2026-05-04 15:37 | 52.69418 | -2.68798 | 3306 ft | 90 kts | 312° |
| 2026-05-04 15:37 | 52.69800 | -2.69624 | 3280 ft | 90 kts | 310° |
| 2026-05-04 15:37 | 52.70155 | -2.70454 | 3301 ft | 88 kts | 308° |
| 2026-05-04 15:38 | 52.70510 | -2.71279 | 3311 ft | 88 kts | 310° |
| 2026-05-04 15:38 | 52.70870 | -2.72088 | 3325 ft | 88 kts | 309° |
| 2026-05-04 15:38 | 52.71218 | -2.72920 | 3356 ft | 88 kts | 307° |
| 2026-05-04 15:38 | 52.71542 | -2.73775 | 3366 ft | 88 kts | 306° |
| 2026-05-04 15:39 | 52.71878 | -2.74621 | 3382 ft | 88 kts | 306° |
| 2026-05-04 15:39 | 52.72229 | -2.75454 | 3379 ft | 89 kts | 309° |
| 2026-05-04 15:39 | 52.73005 | -2.77003 | 3385 ft | 87 kts | 314° |
| 2026-05-04 15:40 | 52.73400 | -2.77765 | 3372 ft | 88 kts | 312° |
| 2026-05-04 15:40 | 52.73782 | -2.78553 | 3402 ft | 86 kts | 311° |
| 2026-05-04 15:40 | 52.74141 | -2.79366 | 3392 ft | 89 kts | 309° |
| 2026-05-04 15:40 | 52.74487 | -2.80190 | 3418 ft | 88 kts | 304° |
| 2026-05-04 15:41 | 52.74780 | -2.81085 | 3421 ft | 88 kts | 302° |
| 2026-05-04 15:41 | 52.75077 | -2.81967 | 3411 ft | 89 kts | 309° |
| 2026-05-04 15:41 | 52.75585 | -2.82416 | 3449 ft | 86 kts | 356° |
| 2026-05-04 15:41 | 52.76125 | -2.82090 | 3422 ft | 82 kts | 28° |
| 2026-05-04 15:42 | 52.76634 | -2.81604 | 3227 ft | 87 kts | 32° |
| 2026-05-04 15:42 | 52.77161 | -2.81085 | 3043 ft | 88 kts | 28° |
| 2026-05-04 15:42 | 52.77709 | -2.80641 | 2893 ft | 88 kts | 25° |
| 2026-05-04 15:42 | 52.78260 | -2.80226 | 2752 ft | 87 kts | 26° |
| 2026-05-04 15:43 | 52.78807 | -2.79794 | 2602 ft | 87 kts | 26° |
| 2026-05-04 15:43 | 52.79348 | -2.79357 | 2472 ft | 86 kts | 27° |
| 2026-05-04 15:43 | 52.79885 | -2.78926 | 2352 ft | 85 kts | 27° |
| 2026-05-04 15:43 | 52.80452 | -2.78620 | 2277 ft | 87 kts | 13° |
| 2026-05-04 15:44 | 52.81054 | -2.78622 | 2304 ft | 89 kts | 359° |
| 2026-05-04 15:44 | 52.81669 | -2.78724 | 2338 ft | 88 kts | 347° |
| 2026-05-04 15:44 | 52.82285 | -2.78779 | 2273 ft | 88 kts | 355° |
| 2026-05-04 15:44 | 52.82891 | -2.79016 | 2169 ft | 86 kts | 347° |
| 2026-05-04 15:45 | 52.83447 | -2.79242 | 2130 ft | 75 kts | 3° |
| 2026-05-04 15:45 | 52.83874 | -2.78851 | 1990 ft | 76 kts | 50° |
| 2026-05-04 15:45 | 52.84238 | -2.78136 | 1719 ft | 84 kts | 51° |
| 2026-05-04 15:45 | 52.84390 | -2.77276 | 1535 ft | 80 kts | 111° |
| 2026-05-04 15:46 | 52.84019 | -2.76562 | 1323 ft | 86 kts | 136° |
| 2026-05-04 15:46 | 52.83556 | -2.75843 | 1260 ft | 94 kts | 138° |
| 2026-05-04 15:46 | 52.83051 | -2.75172 | 1285 ft | 92 kts | 154° |
| 2026-05-04 15:46 | 52.82464 | -2.75303 | 1317 ft | 88 kts | 218° |
| 2026-05-04 15:47 | 52.82011 | -2.76023 | 1249 ft | 94 kts | 228° |
| 2026-05-04 15:47 | 52.81553 | -2.76821 | 1259 ft | 95 kts | 230° |
| 2026-05-04 15:47 | 52.81115 | -2.77670 | 1270 ft | 96 kts | 233° |
| 2026-05-04 15:47 | 52.80970 | -2.78618 | 1272 ft | 80 kts | 291° |
| 2026-05-04 15:48 | 52.81300 | -2.79280 | 1044 ft | 72 kts | 320° |
| 2026-05-04 15:48 | 52.81674 | -2.79722 | 867 ft | 65 kts | 349° |
| 2026-05-04 15:48 | 52.82372 | -2.78861 | 564 ft | 61 kts | 46° |
| 2026-05-04 15:49 | 52.82675 | -2.78379 | 422 ft | 59 kts | 45° |
| 2026-05-04 15:49 | 52.82962 | -2.77892 | 338 ft | 60 kts | 44° |
| 2026-05-04 15:49 | 52.83255 | -2.77411 | 276 ft | 54 kts | 46° |
| 2026-05-04 15:49 | 52.83419 | -2.77134 | 275 ft | 14 kts | 45° |
| 2026-05-04 15:50 | 52.83480 | -2.77032 | 276 ft | 10 kts | 57° |
| 2026-05-04 15:50 | 52.83469 | -2.76938 | 275 ft | 6 kts | 109° |
| 2026-05-04 15:50 | 52.83454 | -2.76868 | 276 ft | 4 kts | 107° |
| 2026-05-04 15:50 | 52.83427 | -2.76854 | 276 ft | 6 kts | 185° |
| 2026-05-04 15:51 | 52.83388 | -2.76888 | 276 ft | 7 kts | 197° |
| 2026-05-04 15:51 | 52.83378 | -2.76850 | 276 ft | 1 kts | 18° |
| 2026-05-04 15:51 | 52.83383 | -2.76849 | 276 ft | 0 kts | 2° |